createdAt,value
2023-12-08T00:00:31.567Z,0.70
2023-12-08T00:02:58.541Z,0.70
2023-12-08T00:05:25.559Z,0.70
2023-12-08T00:07:52.449Z,0.60
2023-12-08T00:10:19.499Z,0.60
2023-12-08T00:12:46.502Z,0.60
2023-12-08T00:15:13.836Z,0.60
2023-12-08T00:17:40.793Z,0.50
2023-12-08T00:20:08.957Z,0.50
2023-12-08T00:22:36.118Z,0.50
2023-12-08T00:25:04.555Z,0.50
2023-12-08T00:27:31.516Z,0.50
2023-12-08T00:29:58.499Z,0.50
2023-12-08T00:32:25.733Z,0.50
2023-12-08T00:34:52.676Z,0.40
2023-12-08T00:37:19.585Z,0.50
2023-12-08T00:39:46.468Z,0.40
2023-12-08T00:42:13.683Z,0.50
2023-12-08T00:44:40.627Z,0.50
2023-12-08T00:47:08.436Z,0.50
2023-12-08T00:49:35.431Z,0.40
2023-12-08T00:52:02.891Z,0.40
2023-12-08T00:54:29.928Z,0.40
2023-12-08T00:56:57.110Z,0.40
2023-12-08T00:59:24.133Z,0.40
2023-12-08T01:01:51.010Z,0.50
2023-12-08T01:04:17.946Z,0.50
2023-12-08T01:06:45.503Z,0.50
2023-12-08T01:09:14.030Z,0.50
2023-12-08T01:11:41.086Z,0.50
2023-12-08T01:14:08.344Z,0.50
2023-12-08T01:16:41.157Z,0.70
2023-12-08T01:19:09.863Z,0.60
2023-12-08T01:21:40.318Z,0.60
2023-12-08T01:24:07.826Z,0.60
2023-12-08T01:26:35.203Z,0.60
2023-12-08T01:29:02.518Z,0.50
2023-12-08T01:31:29.444Z,0.50
2023-12-08T01:33:56.516Z,0.50
2023-12-08T01:36:41.394Z,0.50
2023-12-08T01:39:10.559Z,0.40
2023-12-08T01:41:37.676Z,0.40
2023-12-08T01:44:06.501Z,0.40
2023-12-08T01:46:33.564Z,0.40
2023-12-08T01:49:00.944Z,0.40
2023-12-08T01:51:30.032Z,0.40
2023-12-08T01:53:57.262Z,3.90
2023-12-08T01:56:24.859Z,0.30
2023-12-08T01:58:52.536Z,0.30
2023-12-08T02:01:19.866Z,0.30
2023-12-08T02:03:50.065Z,0.30
2023-12-08T02:06:18.968Z,0.20
2023-12-08T02:08:50.010Z,0.20
2023-12-08T02:11:18.591Z,0.20
2023-12-08T02:13:46.437Z,0.20
2023-12-08T02:16:29.348Z,0.20
2023-12-08T02:18:57.852Z,0.10
2023-12-08T02:21:27.141Z,0.20
2023-12-08T02:23:54.138Z,0.20
2023-12-08T02:26:21.557Z,0.20
2023-12-08T02:28:48.831Z,0.30
2023-12-08T02:31:18.272Z,0.30
2023-12-08T02:33:48.156Z,0.30
2023-12-08T02:36:17.559Z,0.20
2023-12-08T02:38:47.494Z,0.20
2023-12-08T02:41:14.716Z,0.20
2023-12-08T02:43:42.215Z,0.30
2023-12-08T02:46:09.365Z,-0.90
2023-12-08T02:48:36.460Z,3.90
2023-12-08T02:51:04.827Z,0.10
2023-12-08T02:53:32.704Z,0.10
2023-12-08T02:55:59.878Z,0.00
2023-12-08T02:58:26.821Z,0.00
2023-12-08T03:00:53.733Z,0.00
2023-12-08T03:03:21.287Z,0.00
2023-12-08T03:05:48.257Z,3.20
2023-12-08T03:08:15.189Z,0.00
2023-12-08T03:10:42.222Z,0.00
2023-12-08T03:13:09.625Z,0.00
2023-12-08T03:15:36.866Z,0.30
2023-12-08T03:18:04.348Z,-0.10
2023-12-08T03:20:31.312Z,-0.10
2023-12-08T03:22:58.269Z,-0.30
2023-12-08T03:25:25.202Z,-0.30
2023-12-08T03:27:52.172Z,-0.40
2023-12-08T03:30:19.252Z,-0.40
2023-12-08T03:32:46.518Z,-0.30
2023-12-08T03:35:13.721Z,-0.20
2023-12-08T03:37:41.075Z,-0.30
2023-12-08T03:40:08.720Z,-0.40
2023-12-08T03:42:38.036Z,-0.30
2023-12-08T03:45:06.645Z,-0.40
2023-12-08T03:47:34.036Z,1.60
2023-12-08T03:50:01.293Z,-0.20
2023-12-08T03:52:28.368Z,-0.30
2023-12-08T03:54:55.410Z,-0.30
2023-12-08T03:57:22.673Z,-0.30
2023-12-08T03:59:49.820Z,-0.30
2023-12-08T04:02:16.771Z,-0.30
2023-12-08T04:04:43.884Z,-0.30
2023-12-08T04:07:11.324Z,-0.30
2023-12-08T04:09:38.360Z,1.80
2023-12-08T04:12:05.751Z,-0.30
2023-12-08T04:14:33.602Z,-0.30
2023-12-08T04:17:00.622Z,-0.40
2023-12-08T04:19:28.090Z,-0.30
2023-12-08T04:21:55.361Z,-0.50
2023-12-08T04:24:22.428Z,-0.40
2023-12-08T04:26:49.411Z,-0.30
2023-12-08T04:29:16.674Z,-0.40
2023-12-08T04:31:43.885Z,2.50
2023-12-08T04:34:11.141Z,-0.50
2023-12-08T04:36:38.201Z,-0.50
2023-12-08T04:39:05.366Z,-0.50
2023-12-08T04:41:32.958Z,-0.50
2023-12-08T04:43:59.924Z,-0.60
2023-12-08T04:46:26.847Z,-0.50
2023-12-08T04:48:54.063Z,-0.40
2023-12-08T04:51:21.028Z,-0.50
2023-12-08T04:53:48.219Z,-0.40
2023-12-08T04:56:15.335Z,-0.40
2023-12-08T04:58:42.342Z,-0.30
2023-12-08T05:01:14.066Z,-0.50
2023-12-08T05:03:41.983Z,-0.80
2023-12-08T05:06:09.795Z,-0.80
2023-12-08T05:08:37.556Z,-0.80
2023-12-08T05:11:04.770Z,-0.70
2023-12-08T05:13:31.953Z,-0.70
2023-12-08T05:15:58.962Z,-0.60
2023-12-08T05:18:27.268Z,-0.70
2023-12-08T05:20:54.400Z,-0.50
2023-12-08T05:23:21.781Z,-0.50
2023-12-08T05:25:48.676Z,-0.60
2023-12-08T05:28:15.635Z,-0.50
2023-12-08T05:30:42.630Z,-0.50
2023-12-08T05:33:10.226Z,-0.60
2023-12-08T05:35:37.351Z,-0.60
2023-12-08T05:38:04.314Z,-0.50
2023-12-08T05:40:31.255Z,-0.50
2023-12-08T05:42:58.337Z,-0.50
2023-12-08T05:45:25.330Z,-0.50
2023-12-08T05:47:52.373Z,-0.50
2023-12-08T05:50:19.320Z,-0.40
2023-12-08T05:52:46.283Z,-0.40
2023-12-08T05:55:13.343Z,-0.40
2023-12-08T05:57:40.310Z,-0.40
2023-12-08T06:00:11.306Z,-0.40
2023-12-08T06:02:39.262Z,-0.40
2023-12-08T06:05:06.671Z,-0.40
2023-12-08T06:07:33.774Z,-0.40
2023-12-08T06:10:00.769Z,-0.40
2023-12-08T06:12:27.763Z,-0.50
2023-12-08T06:14:55.940Z,-0.50
2023-12-08T06:17:22.889Z,-0.50
2023-12-08T06:19:50.014Z,-0.40
2023-12-08T06:22:16.931Z,-0.50
2023-12-08T06:24:44.051Z,-0.50
2023-12-08T06:27:11.528Z,-0.40
2023-12-08T06:29:38.675Z,-0.40
2023-12-08T06:32:06.586Z,-0.40
2023-12-08T06:34:33.893Z,-0.40
2023-12-08T06:37:01.055Z,-0.40
2023-12-08T06:39:28.239Z,-0.30
2023-12-08T06:41:55.209Z,-0.30
2023-12-08T06:44:22.319Z,-0.40
2023-12-08T06:46:49.359Z,-0.40
2023-12-08T06:49:16.441Z,-0.40
2023-12-08T06:51:43.584Z,-0.30
2023-12-08T06:54:12.160Z,-0.20
2023-12-08T06:56:42.800Z,-0.20
2023-12-08T06:59:10.307Z,-0.10
2023-12-08T07:01:37.446Z,-0.10
2023-12-08T07:04:07.880Z,0.10
2023-12-08T07:06:35.000Z,0.10
2023-12-08T07:09:02.178Z,0.20
2023-12-08T07:11:29.125Z,0.30
2023-12-08T07:13:56.052Z,0.40
2023-12-08T07:16:23.054Z,0.50
2023-12-08T07:18:50.111Z,0.50
2023-12-08T07:21:17.243Z,0.60
2023-12-08T07:23:44.169Z,0.70
2023-12-08T07:26:11.625Z,0.70
2023-12-08T07:28:38.744Z,0.80
2023-12-08T07:31:05.750Z,0.90
2023-12-08T07:33:32.774Z,1.00
2023-12-08T07:35:59.898Z,1.20
2023-12-08T07:38:26.931Z,1.30
2023-12-08T07:40:54.294Z,1.60
2023-12-08T07:43:22.419Z,1.70
2023-12-08T07:45:49.453Z,1.70
2023-12-08T07:48:16.512Z,1.80
2023-12-08T07:50:43.600Z,2.00
2023-12-08T07:53:10.577Z,2.20
2023-12-08T07:55:37.525Z,2.30
2023-12-08T07:58:04.846Z,2.50
2023-12-08T08:00:32.993Z,2.70
2023-12-08T08:03:00.324Z,2.90
2023-12-08T08:05:27.298Z,3.00
2023-12-08T08:07:54.212Z,3.20
2023-12-08T08:10:22.671Z,3.40
2023-12-08T08:12:49.995Z,3.60
2023-12-08T08:15:17.013Z,3.80
2023-12-08T08:17:44.008Z,3.90
2023-12-08T08:20:11.335Z,4.10
2023-12-08T08:22:38.262Z,4.30
2023-12-08T08:25:05.862Z,4.60
2023-12-08T08:27:33.484Z,4.80
2023-12-08T08:30:00.775Z,5.10
2023-12-08T08:32:28.530Z,5.30
2023-12-08T08:34:57.788Z,5.50
2023-12-08T08:37:26.220Z,5.70
2023-12-08T08:39:53.523Z,5.70
2023-12-08T08:42:21.073Z,6.00
2023-12-08T08:44:48.157Z,6.10
2023-12-08T08:47:15.093Z,6.20
2023-12-08T08:49:42.334Z,6.40
2023-12-08T08:52:09.401Z,6.50
2023-12-08T08:54:36.473Z,6.70
2023-12-08T08:57:06.289Z,7.10
2023-12-08T08:59:33.326Z,7.40
2023-12-08T09:02:00.592Z,7.70
2023-12-08T09:04:27.662Z,7.90
2023-12-08T09:06:57.539Z,8.20
2023-12-08T09:09:24.775Z,8.40
2023-12-08T09:11:51.984Z,8.60
2023-12-08T09:14:18.983Z,8.90
2023-12-08T09:16:48.197Z,9.30
2023-12-08T09:19:15.410Z,9.50
2023-12-08T09:21:49.322Z,9.80
2023-12-08T09:24:21.714Z,10.10
2023-12-08T09:26:48.845Z,10.30
2023-12-08T09:29:15.891Z,10.50
2023-12-08T09:31:43.511Z,10.70
2023-12-08T09:34:10.602Z,10.80
2023-12-08T09:36:37.720Z,10.80
2023-12-08T09:39:05.544Z,11.10
2023-12-08T09:41:33.224Z,11.50
2023-12-08T09:44:19.564Z,11.70
2023-12-08T09:46:47.942Z,11.80
2023-12-08T09:49:44.267Z,12.00
2023-12-08T09:52:14.788Z,12.30
2023-12-08T09:54:45.544Z,12.40
2023-12-08T09:57:15.021Z,12.90
2023-12-08T09:59:43.729Z,13.10
2023-12-08T10:02:11.047Z,13.40
2023-12-08T10:04:38.497Z,13.70
2023-12-08T10:07:09.422Z,13.70
2023-12-08T10:09:37.212Z,13.80
2023-12-08T10:12:05.850Z,14.10
2023-12-08T10:14:33.472Z,14.20
2023-12-08T10:17:00.492Z,14.50
2023-12-08T10:19:27.692Z,15.20
2023-12-08T10:22:02.242Z,15.60
2023-12-08T10:24:32.930Z,15.90
2023-12-08T10:27:00.774Z,16.10
2023-12-08T10:29:34.761Z,16.50
2023-12-08T10:32:02.569Z,16.90
2023-12-08T10:34:29.666Z,16.70
2023-12-08T10:36:57.068Z,16.00
2023-12-08T10:39:25.462Z,16.00
2023-12-08T10:41:53.073Z,16.10
2023-12-08T10:44:24.161Z,16.50
2023-12-08T10:46:52.967Z,16.80
2023-12-08T10:49:21.109Z,16.60
2023-12-08T10:51:49.278Z,16.90
2023-12-08T10:54:20.579Z,17.40
2023-12-08T10:56:49.375Z,17.40
2023-12-08T10:59:25.506Z,17.50
2023-12-08T11:01:56.397Z,17.60
2023-12-08T11:04:26.217Z,17.80
2023-12-08T11:07:06.452Z,18.00
2023-12-08T11:09:39.957Z,18.30
2023-12-08T11:12:09.001Z,18.50
2023-12-08T11:14:42.339Z,18.90
2023-12-08T11:17:21.652Z,19.40
2023-12-08T11:19:49.825Z,19.70
2023-12-08T11:22:17.479Z,19.90
2023-12-08T11:24:45.113Z,20.20
2023-12-08T11:27:20.819Z,20.20
2023-12-08T11:30:11.655Z,20.10
2023-12-08T11:33:07.029Z,20.20
2023-12-08T11:35:34.027Z,20.50
2023-12-08T11:38:06.549Z,20.40
2023-12-08T11:40:33.477Z,20.50
2023-12-08T11:43:01.572Z,20.40
2023-12-08T11:45:29.843Z,20.60
2023-12-08T11:47:57.534Z,20.70
2023-12-08T11:50:26.282Z,21.00
2023-12-08T11:52:53.324Z,21.00
2023-12-08T11:55:28.218Z,21.00
2023-12-08T11:58:03.422Z,21.10
2023-12-08T12:00:32.121Z,21.20
2023-12-08T12:03:00.404Z,21.40
2023-12-08T12:05:29.503Z,21.80
2023-12-08T12:07:58.497Z,22.20
2023-12-08T12:10:29.876Z,22.40
2023-12-08T12:13:04.318Z,22.60
2023-12-08T12:15:34.661Z,22.60
2023-12-08T12:18:03.630Z,22.90
2023-12-08T12:20:35.519Z,23.40
2023-12-08T12:23:03.605Z,23.50
2023-12-08T12:25:30.627Z,23.20
2023-12-08T12:27:58.920Z,23.10
2023-12-08T12:30:26.175Z,22.40
2023-12-08T12:32:54.305Z,21.50
2023-12-08T12:35:22.279Z,20.70
2023-12-08T12:37:49.384Z,20.30
2023-12-08T12:40:16.572Z,20.10
2023-12-08T12:42:45.705Z,20.10
2023-12-08T12:45:29.588Z,20.50
2023-12-08T12:48:00.771Z,21.30
2023-12-08T12:50:27.782Z,21.70
2023-12-08T12:53:06.810Z,21.50
2023-12-08T12:55:33.791Z,22.10
2023-12-08T12:58:02.889Z,22.00
2023-12-08T13:00:39.091Z,21.80
2023-12-08T13:03:11.605Z,21.80
2023-12-08T13:05:49.215Z,21.90
2023-12-08T13:08:18.254Z,21.70
2023-12-08T13:10:46.250Z,21.30
2023-12-08T13:13:15.810Z,21.20
2023-12-08T13:15:43.738Z,21.80
2023-12-08T13:18:11.425Z,21.60
2023-12-08T13:20:39.334Z,21.80
2023-12-08T13:23:07.378Z,21.70
2023-12-08T13:25:34.453Z,21.50
2023-12-08T13:28:01.442Z,21.30
2023-12-08T13:30:28.385Z,21.00
2023-12-08T13:32:56.550Z,20.90
2023-12-08T13:35:24.028Z,20.70
2023-12-08T13:37:51.176Z,20.20
2023-12-08T13:40:18.444Z,19.60
2023-12-08T13:42:45.446Z,19.10
2023-12-08T13:45:12.432Z,18.90
2023-12-08T13:47:40.190Z,18.40
2023-12-08T13:50:07.294Z,17.90
2023-12-08T13:52:34.326Z,17.70
2023-12-08T13:55:01.351Z,17.80
2023-12-08T13:57:28.501Z,18.00
2023-12-08T13:59:55.649Z,18.20
2023-12-08T14:02:23.177Z,18.10
2023-12-08T14:04:50.328Z,18.20
2023-12-08T14:07:17.486Z,18.00
2023-12-08T14:09:44.404Z,17.90
2023-12-08T14:12:11.552Z,17.70
2023-12-08T14:14:38.615Z,17.30
2023-12-08T14:17:05.965Z,16.90
2023-12-08T14:19:33.128Z,16.40
2023-12-08T14:22:00.486Z,16.10
2023-12-08T14:24:27.908Z,15.60
2023-12-08T14:26:55.358Z,15.20
2023-12-08T14:29:23.498Z,14.90
2023-12-08T14:31:50.611Z,14.50
2023-12-08T14:34:18.278Z,14.10
2023-12-08T14:36:47.209Z,13.90
2023-12-08T14:39:14.502Z,13.70
2023-12-08T14:41:41.895Z,13.60
2023-12-08T14:44:10.250Z,13.50
2023-12-08T14:46:37.167Z,13.30
2023-12-08T14:49:10.019Z,13.00
2023-12-08T14:51:38.758Z,12.60
2023-12-08T14:54:05.774Z,12.10
2023-12-08T14:56:32.753Z,11.60
2023-12-08T14:58:59.627Z,11.10
2023-12-08T15:01:26.929Z,10.70
2023-12-08T15:03:54.057Z,10.30
2023-12-08T15:06:21.182Z,9.90
2023-12-08T15:08:48.204Z,9.60
2023-12-08T15:11:15.270Z,9.20
2023-12-08T15:13:42.319Z,9.00
2023-12-08T15:16:10.320Z,8.70
2023-12-08T15:18:37.891Z,8.40
2023-12-08T15:21:08.469Z,8.10
2023-12-08T15:23:38.063Z,7.90
2023-12-08T15:26:05.110Z,7.70
2023-12-08T15:28:32.014Z,7.50
2023-12-08T15:30:58.920Z,7.30
2023-12-08T15:33:26.154Z,7.10
2023-12-08T15:35:53.328Z,7.00
2023-12-08T15:38:20.289Z,6.90
2023-12-08T15:40:47.190Z,6.80
2023-12-08T15:43:14.136Z,6.60
2023-12-08T15:45:41.201Z,6.50
2023-12-08T15:48:08.540Z,6.40
2023-12-08T15:50:35.607Z,6.30
2023-12-08T15:53:02.777Z,6.20
2023-12-08T15:55:29.767Z,6.10
2023-12-08T15:57:56.677Z,6.10
2023-12-08T16:00:23.935Z,5.90
2023-12-08T16:02:51.061Z,5.90
2023-12-08T16:05:18.161Z,5.80
2023-12-08T16:07:45.105Z,5.70
2023-12-08T16:10:12.091Z,5.60
2023-12-08T16:12:39.234Z,5.50
2023-12-08T16:15:10.008Z,5.40
2023-12-08T16:17:37.148Z,5.30
2023-12-08T16:20:04.476Z,5.20
2023-12-08T16:22:31.470Z,5.10
2023-12-08T16:24:58.415Z,5.10
2023-12-08T16:27:25.692Z,5.00
2023-12-08T16:29:52.850Z,5.00
2023-12-08T16:32:19.807Z,5.00
2023-12-08T16:34:46.873Z,4.90
2023-12-08T16:37:13.870Z,4.80
2023-12-08T16:39:40.799Z,4.70
2023-12-08T16:42:08.019Z,4.60
2023-12-08T16:44:35.008Z,4.60
2023-12-08T16:47:02.236Z,4.60
2023-12-08T16:49:29.363Z,4.60
2023-12-08T16:51:56.466Z,4.60
2023-12-08T16:54:23.809Z,4.50
2023-12-08T16:56:51.419Z,4.40
2023-12-08T16:59:18.440Z,4.30
2023-12-08T17:01:46.555Z,4.30
2023-12-08T17:04:14.661Z,4.30
2023-12-08T17:06:41.666Z,4.20
2023-12-08T17:09:08.713Z,4.20
2023-12-08T17:11:35.700Z,4.10
2023-12-08T17:14:02.660Z,4.20
2023-12-08T17:16:29.629Z,4.10
2023-12-08T17:18:56.939Z,4.00
2023-12-08T17:21:24.097Z,3.90
2023-12-08T17:23:51.336Z,3.90
2023-12-08T17:26:28.896Z,3.90
2023-12-08T17:29:02.947Z,3.80
2023-12-08T17:31:29.847Z,3.80
2023-12-08T17:34:04.775Z,3.70
2023-12-08T17:36:39.124Z,3.60
2023-12-08T17:39:06.142Z,3.60
2023-12-08T17:41:33.105Z,3.50
2023-12-08T17:44:00.059Z,3.50
2023-12-08T17:46:27.024Z,3.50
2023-12-08T17:48:54.158Z,3.50
2023-12-08T17:51:21.341Z,3.60
2023-12-08T17:53:48.340Z,3.50
2023-12-08T17:56:15.781Z,3.50
2023-12-08T17:58:43.846Z,3.40
2023-12-08T18:01:11.027Z,3.40
2023-12-08T18:03:38.135Z,3.40
2023-12-08T18:06:05.524Z,3.40
2023-12-08T18:08:32.457Z,3.40
2023-12-08T18:10:59.360Z,3.40
2023-12-08T18:13:26.256Z,3.40
2023-12-08T18:15:53.176Z,3.40
2023-12-08T18:18:20.154Z,3.40
2023-12-08T18:20:47.120Z,3.40
2023-12-08T18:23:15.363Z,3.40
2023-12-08T18:25:42.921Z,3.40
2023-12-08T18:28:28.090Z,3.40
2023-12-08T18:30:56.697Z,3.20
2023-12-08T18:33:23.759Z,3.20
2023-12-08T18:35:50.761Z,3.20
2023-12-08T18:38:17.718Z,3.20
2023-12-08T18:40:44.617Z,3.20
2023-12-08T18:43:11.581Z,3.20
2023-12-08T18:45:38.495Z,3.30
2023-12-08T18:48:05.928Z,3.20
2023-12-08T18:50:32.883Z,3.20
2023-12-08T18:52:59.816Z,3.10
2023-12-08T18:55:26.813Z,3.10
2023-12-08T18:57:53.846Z,3.10
2023-12-08T19:00:21.040Z,3.10
2023-12-08T19:02:48.050Z,3.10
2023-12-08T19:05:15.612Z,3.00
2023-12-08T19:07:42.636Z,3.00
2023-12-08T19:10:09.929Z,2.90
2023-12-08T19:12:36.916Z,2.90
2023-12-08T19:15:04.619Z,2.90
2023-12-08T19:17:31.742Z,2.90
2023-12-08T19:19:58.691Z,2.90
2023-12-08T19:22:25.883Z,2.90
2023-12-08T19:24:53.338Z,2.80
2023-12-08T19:27:20.244Z,2.80
2023-12-08T19:29:47.502Z,2.70
2023-12-08T19:32:14.736Z,2.70
2023-12-08T19:34:41.642Z,2.70
2023-12-08T19:37:08.540Z,2.70
2023-12-08T19:39:35.779Z,2.60
2023-12-08T19:42:02.814Z,2.60
2023-12-08T19:44:30.607Z,2.50
2023-12-08T19:46:57.668Z,2.50
2023-12-08T19:49:24.852Z,2.50
2023-12-08T19:51:52.122Z,2.50
2023-12-08T19:54:19.961Z,2.40
2023-12-08T19:56:47.245Z,2.40
2023-12-08T19:59:14.483Z,2.50
2023-12-08T20:01:41.454Z,2.50
2023-12-08T20:04:08.503Z,2.50
2023-12-08T20:06:35.605Z,2.50
2023-12-08T20:09:04.080Z,2.50
2023-12-08T20:11:31.385Z,2.50
2023-12-08T20:14:00.269Z,2.50
2023-12-08T20:16:27.162Z,2.50
2023-12-08T20:18:54.292Z,2.50
2023-12-08T20:21:21.263Z,2.50
2023-12-08T20:23:48.369Z,2.40
2023-12-08T20:26:15.719Z,2.40
2023-12-08T20:28:42.963Z,2.40
2023-12-08T20:31:18.494Z,2.30
2023-12-08T20:33:46.159Z,2.30
2023-12-08T20:36:13.586Z,2.20
2023-12-08T20:38:41.226Z,2.20
2023-12-08T20:41:08.613Z,2.20
2023-12-08T20:43:36.035Z,2.20
2023-12-08T20:46:04.121Z,2.20
2023-12-08T20:48:32.331Z,2.20
2023-12-08T20:50:59.439Z,2.20
2023-12-08T20:53:28.461Z,2.10
2023-12-08T20:55:55.383Z,2.10
2023-12-08T20:58:22.390Z,2.00
2023-12-08T21:00:49.562Z,2.00
2023-12-08T21:03:16.660Z,1.90
2023-12-08T21:05:43.640Z,1.90
2023-12-08T21:08:10.588Z,2.00
2023-12-08T21:10:37.544Z,1.90
2023-12-08T21:13:05.827Z,1.90
2023-12-08T21:15:32.844Z,1.90
2023-12-08T21:17:59.861Z,1.90
2023-12-08T21:20:26.803Z,1.90
2023-12-08T21:22:53.706Z,1.90
2023-12-08T21:25:20.648Z,1.80
2023-12-08T21:27:47.648Z,1.90
2023-12-08T21:30:14.709Z,1.90
2023-12-08T21:32:41.720Z,1.80
2023-12-08T21:35:09.120Z,1.70
2023-12-08T21:37:37.647Z,1.70
2023-12-08T21:40:04.931Z,1.70
2023-12-08T21:42:32.053Z,1.70
2023-12-08T21:45:03.231Z,1.60
2023-12-08T21:47:30.781Z,1.60
2023-12-08T21:49:58.114Z,1.60
2023-12-08T21:52:25.019Z,1.50
2023-12-08T21:54:51.957Z,1.60
2023-12-08T21:57:18.941Z,1.50
2023-12-08T21:59:45.920Z,1.50
2023-12-08T22:02:12.915Z,1.60
2023-12-08T22:04:40.257Z,1.60
2023-12-08T22:07:07.228Z,1.60
2023-12-08T22:09:34.323Z,1.50
2023-12-08T22:12:03.479Z,1.50
2023-12-08T22:14:31.650Z,1.50
2023-12-08T22:16:58.538Z,1.60
2023-12-08T22:19:25.567Z,1.60
2023-12-08T22:21:52.666Z,1.60
2023-12-08T22:24:19.642Z,1.60
2023-12-08T22:26:46.672Z,1.60
2023-12-08T22:29:13.730Z,1.60
2023-12-08T22:31:40.628Z,1.70
2023-12-08T22:34:07.793Z,1.60
2023-12-08T22:36:36.516Z,1.10
2023-12-08T22:39:04.347Z,1.60
2023-12-08T22:41:31.508Z,1.70
2023-12-08T22:43:58.391Z,1.60
2023-12-08T22:46:25.349Z,1.50
2023-12-08T22:48:52.377Z,1.50
2023-12-08T22:51:25.633Z,1.50
2023-12-08T22:53:59.825Z,1.40
2023-12-08T22:56:26.797Z,1.40
2023-12-08T22:58:53.730Z,1.50
2023-12-08T23:01:20.653Z,1.50
2023-12-08T23:03:47.692Z,1.60
2023-12-08T23:06:14.622Z,1.70
2023-12-08T23:08:41.762Z,1.70
2023-12-08T23:11:09.774Z,1.80
2023-12-08T23:13:36.898Z,1.90
2023-12-08T23:16:04.259Z,2.00
2023-12-08T23:18:31.308Z,2.00
2023-12-08T23:20:58.403Z,2.10
2023-12-08T23:23:26.540Z,2.00
2023-12-08T23:25:54.827Z,2.00
2023-12-08T23:28:21.816Z,2.00
2023-12-08T23:30:57.270Z,1.90
2023-12-08T23:33:27.704Z,0.60
2023-12-08T23:35:54.751Z,2.00
2023-12-08T23:38:21.679Z,2.00
2023-12-08T23:40:48.796Z,2.10
2023-12-08T23:43:15.865Z,2.00
2023-12-08T23:45:42.816Z,2.10
2023-12-08T23:48:09.861Z,2.10
2023-12-08T23:50:36.842Z,2.20
2023-12-08T23:53:04.379Z,2.20
2023-12-08T23:55:31.247Z,2.20
2023-12-08T23:57:58.234Z,2.40
